createdAt,value
2022-09-22T00:07:03.330Z,8.81
2022-09-22T00:17:07.406Z,8.85
2022-09-22T00:27:10.124Z,8.70
2022-09-22T00:37:14.167Z,8.66
2022-09-22T00:47:27.944Z,8.64
2022-09-22T00:57:34.930Z,8.48
2022-09-22T01:07:38.317Z,8.45
2022-09-22T01:17:51.651Z,8.34
2022-09-22T01:28:26.270Z,8.17
2022-09-22T01:38:37.785Z,8.14
2022-09-22T01:48:44.312Z,8.11
2022-09-22T01:58:53.432Z,8.02
2022-09-22T02:08:59.682Z,7.99
2022-09-22T02:19:12.972Z,7.87
2022-09-22T02:29:17.763Z,7.85
2022-09-22T02:39:28.398Z,7.81
2022-09-22T02:49:31.706Z,7.64
2022-09-22T02:59:35.739Z,7.60
2022-09-22T03:09:38.439Z,7.60
2022-09-22T03:19:42.479Z,7.53
2022-09-22T03:29:45.143Z,7.50
2022-09-22T03:39:49.167Z,7.43
2022-09-22T03:49:51.832Z,7.33
2022-09-22T03:59:55.843Z,7.39
2022-09-22T04:09:58.588Z,7.32
2022-09-22T04:20:03.020Z,7.26
2022-09-22T04:30:06.903Z,7.32
2022-09-22T04:40:12.347Z,7.27
2022-09-22T04:50:15.817Z,7.14
2022-09-22T05:00:21.501Z,7.02
2022-09-22T05:10:25.670Z,7.07
2022-09-22T05:20:29.710Z,7.10
2022-09-22T05:30:32.354Z,6.98
2022-09-22T05:40:36.627Z,7.07
2022-09-22T05:50:39.313Z,7.13
2022-09-22T06:00:43.362Z,7.25
2022-09-22T06:10:48.886Z,7.45
2022-09-22T06:20:56.261Z,7.72
2022-09-22T06:31:00.478Z,8.07
2022-09-22T06:41:07.275Z,8.59
2022-09-22T06:51:13.133Z,9.05
2022-09-22T07:01:19.215Z,9.44
2022-09-22T07:11:23.632Z,9.85
2022-09-22T07:21:32.768Z,10.22
2022-09-22T07:31:36.599Z,10.64
2022-09-22T07:41:44.059Z,11.15
2022-09-22T07:51:47.366Z,11.61
2022-09-22T08:01:53.621Z,12.15
2022-09-22T08:11:57.047Z,12.75
2022-09-22T08:22:01.053Z,13.17
2022-09-22T08:32:04.083Z,13.68
2022-09-22T08:42:13.783Z,14.17
2022-09-22T08:52:22.903Z,14.60
2022-09-22T09:02:38.359Z,14.99
2022-09-22T09:12:57.528Z,15.51
2022-09-22T09:23:04.007Z,15.87
2022-09-22T09:33:17.875Z,16.26
2022-09-22T09:43:23.722Z,16.69
2022-09-22T09:53:33.421Z,16.94
2022-09-22T10:03:46.756Z,17.15
2022-09-22T10:13:57.268Z,17.35
2022-09-22T10:24:01.924Z,17.67
2022-09-22T10:34:05.725Z,17.83
2022-09-22T10:54:51.451Z,18.33
2022-09-22T11:05:04.421Z,18.48
2022-09-22T11:15:33.032Z,20.40
2022-09-22T11:26:02.779Z,23.79
2022-09-22T11:36:21.646Z,28.52
2022-09-22T11:46:35.346Z,29.42
2022-09-22T11:56:41.473Z,26.78
2022-09-22T12:06:47.697Z,33.42
2022-09-22T12:16:58.120Z,26.37
2022-09-22T12:27:11.838Z,31.01
2022-09-22T12:37:22.632Z,22.80
2022-09-22T12:47:32.208Z,20.98
2022-09-22T12:57:46.038Z,24.86
2022-09-22T13:07:50.052Z,23.72
2022-09-22T13:17:52.711Z,21.29
2022-09-22T13:28:15.598Z,21.27
2022-09-22T13:38:18.432Z,20.36
2022-09-22T13:48:22.725Z,20.10
2022-09-22T13:58:29.858Z,19.50
2022-09-22T14:08:34.319Z,20.12
2022-09-22T14:18:42.284Z,20.43
2022-09-22T14:28:46.432Z,20.70
2022-09-22T14:39:04.226Z,20.54
2022-09-22T14:49:37.934Z,19.81
2022-09-22T14:59:57.943Z,19.76
2022-09-22T15:10:04.948Z,19.33
2022-09-22T15:20:09.802Z,19.21
2022-09-22T15:30:16.423Z,19.23
2022-09-22T15:40:21.264Z,19.11
2022-09-22T15:50:28.860Z,19.00
2022-09-22T16:00:32.233Z,18.69
2022-09-22T16:10:36.303Z,18.30
2022-09-22T16:20:38.998Z,18.04
2022-09-22T16:30:43.039Z,17.90
2022-09-22T16:40:45.817Z,17.65
2022-09-22T16:50:50.147Z,17.46
2022-09-22T17:00:52.940Z,16.95
2022-09-22T17:10:56.946Z,16.55
2022-09-22T17:20:59.609Z,16.00
2022-09-22T17:31:07.589Z,15.67
2022-09-22T17:41:10.689Z,15.33
2022-09-22T17:51:48.914Z,15.02
2022-09-22T18:01:53.661Z,14.64
2022-09-22T18:11:57.948Z,14.33
2022-09-22T18:22:00.872Z,14.14
2022-09-22T18:32:05.344Z,13.96
2022-09-22T18:42:11.074Z,13.78
2022-09-22T18:52:16.513Z,13.53
2022-09-22T19:02:22.489Z,13.32
2022-09-22T19:12:27.151Z,13.07
2022-09-22T19:22:31.024Z,12.93
2022-09-22T19:32:35.187Z,12.81
2022-09-22T19:42:40.333Z,12.65
2022-09-22T19:52:44.750Z,12.44
2022-09-22T20:02:48.076Z,12.32
2022-09-22T20:12:52.905Z,12.18
2022-09-22T20:22:59.982Z,12.14
2022-09-22T20:33:04.123Z,11.98
2022-09-22T20:43:07.133Z,11.84
2022-09-22T20:53:12.682Z,11.89
2022-09-22T21:03:15.432Z,11.83
2022-09-22T21:13:19.946Z,11.72
2022-09-22T21:23:22.640Z,11.64
2022-09-22T21:33:28.018Z,11.51
2022-09-22T21:43:31.075Z,11.31
2022-09-22T21:53:36.442Z,11.13
2022-09-22T22:03:41.928Z,11.02
2022-09-22T22:13:46.743Z,10.95
2022-09-22T22:23:52.220Z,10.93
2022-09-22T22:33:56.846Z,10.89
2022-09-22T22:43:59.997Z,10.75
2022-09-22T22:54:04.744Z,10.68
2022-09-22T23:04:10.620Z,10.50
2022-09-22T23:14:15.757Z,10.45
2022-09-22T23:24:18.940Z,10.36
2022-09-22T23:34:24.487Z,10.35
2022-09-22T23:44:27.732Z,10.28
2022-09-22T23:54:33.685Z,10.21
